createdAt,value
2023-02-24T00:02:15.449Z,3.75
2023-02-24T00:04:44.114Z,3.85
2023-02-24T00:07:13.200Z,3.93
2023-02-24T00:09:44.596Z,4.05
2023-02-24T00:12:14.973Z,4.14
2023-02-24T00:14:45.497Z,4.21
2023-02-24T00:17:16.874Z,4.28
2023-02-24T00:19:46.634Z,4.37
2023-02-24T00:22:14.933Z,4.40
2023-02-24T00:24:43.311Z,4.43
2023-02-24T00:27:12.232Z,4.49
2023-02-24T00:29:42.057Z,4.53
2023-02-24T00:32:13.526Z,4.60
2023-02-24T00:34:43.367Z,4.66
2023-02-24T00:37:12.250Z,4.74
2023-02-24T00:39:42.083Z,4.77
2023-02-24T00:42:12.059Z,4.81
2023-02-24T00:44:44.719Z,4.84
2023-02-24T00:47:14.864Z,4.88
2023-02-24T00:49:43.505Z,4.89
2023-02-24T00:52:21.789Z,4.92
2023-02-24T00:54:50.736Z,4.96
2023-02-24T00:57:21.731Z,4.96
2023-02-24T00:59:54.646Z,4.98
2023-02-24T01:02:22.811Z,5.04
2023-02-24T01:04:51.681Z,5.08
2023-02-24T01:07:20.149Z,5.11
2023-02-24T01:09:50.336Z,5.12
2023-02-24T01:12:38.666Z,5.13
2023-02-24T01:15:09.351Z,5.13
2023-02-24T01:17:37.900Z,5.13
2023-02-24T01:20:17.148Z,5.13
2023-02-24T01:22:50.657Z,5.15
2023-02-24T01:25:20.968Z,5.16
2023-02-24T01:27:49.241Z,5.19
2023-02-24T01:30:18.494Z,5.23
2023-02-24T01:32:47.841Z,5.25
2023-02-24T01:35:19.346Z,5.28
2023-02-24T01:37:47.945Z,5.29
2023-02-24T01:40:21.144Z,5.27
2023-02-24T01:42:50.117Z,5.26
2023-02-24T01:45:25.185Z,5.26
2023-02-24T01:47:59.614Z,5.27
2023-02-24T01:50:28.810Z,5.29
2023-02-24T01:53:04.521Z,5.31
2023-02-24T01:55:38.496Z,5.34
2023-02-24T01:58:16.653Z,5.37
2023-02-24T02:05:40.436Z,5.42
2023-02-24T02:08:10.478Z,5.43
2023-02-24T02:10:44.363Z,5.44
2023-02-24T02:13:21.112Z,5.45
2023-02-24T02:16:14.178Z,5.47
2023-02-24T02:18:56.422Z,5.50
2023-02-24T02:21:27.664Z,5.52
2023-02-24T02:24:14.866Z,5.55
2023-02-24T02:26:54.197Z,5.55
2023-02-24T02:29:45.627Z,5.57
2023-02-24T02:32:53.581Z,5.57
2023-02-24T02:35:36.875Z,5.56
2023-02-24T02:38:04.935Z,5.57
2023-02-24T02:40:42.519Z,5.57
2023-02-24T02:43:25.974Z,5.58
2023-02-24T02:46:06.546Z,5.60
2023-02-24T02:48:47.874Z,5.62
2023-02-24T02:51:24.723Z,5.63
2023-02-24T02:54:16.763Z,5.63
2023-02-24T02:56:54.953Z,5.64
2023-02-24T02:59:28.579Z,5.64
2023-02-24T03:02:11.691Z,5.65
2023-02-24T03:04:55.213Z,5.67
2023-02-24T03:07:31.057Z,5.68
2023-02-24T03:10:09.746Z,5.67
2023-02-24T03:12:41.360Z,5.67
2023-02-24T03:15:11.356Z,5.67
2023-02-24T03:17:43.481Z,5.68
2023-02-24T03:20:17.659Z,5.69
2023-02-24T03:23:16.858Z,5.70
2023-02-24T03:26:07.996Z,5.70
2023-02-24T03:28:45.691Z,5.70
2023-02-24T03:31:23.899Z,5.69
2023-02-24T03:34:05.596Z,5.67
2023-02-24T03:36:33.982Z,5.65
2023-02-24T03:39:02.677Z,5.64
2023-02-24T03:41:41.210Z,5.66
2023-02-24T03:44:11.226Z,5.66
2023-02-24T03:46:42.788Z,5.66
2023-02-24T03:49:16.355Z,5.63
2023-02-24T03:52:00.863Z,5.64
2023-02-24T03:54:39.538Z,5.62
2023-02-24T03:57:27.594Z,5.62
2023-02-24T04:00:38.549Z,5.61
2023-02-24T04:03:11.637Z,5.61
2023-02-24T04:05:47.745Z,5.61
2023-02-24T04:08:17.544Z,5.59
2023-02-24T04:11:05.509Z,5.61
2023-02-24T04:13:41.194Z,5.59
2023-02-24T04:16:28.956Z,5.58
2023-02-24T04:19:03.534Z,5.58
2023-02-24T04:21:34.241Z,5.58
2023-02-24T04:24:11.688Z,5.58
2023-02-24T04:26:43.437Z,5.58
2023-02-24T04:29:17.828Z,5.58
2023-02-24T04:32:08.413Z,5.58
2023-02-24T04:34:37.751Z,5.57
2023-02-24T04:37:06.383Z,5.56
2023-02-24T04:39:38.578Z,5.55
2023-02-24T04:42:10.988Z,5.55
2023-02-24T04:44:39.008Z,5.54
2023-02-24T04:47:07.452Z,5.56
2023-02-24T04:49:35.650Z,5.56
2023-02-24T04:52:03.680Z,5.58
2023-02-24T04:54:33.014Z,5.59
2023-02-24T04:57:01.175Z,5.58
2023-02-24T04:59:29.414Z,5.58
2023-02-24T05:02:01.615Z,5.58
2023-02-24T05:04:36.040Z,5.58
2023-02-24T05:07:04.752Z,5.59
2023-02-24T05:09:33.255Z,5.59
2023-02-24T05:12:01.407Z,5.59
2023-02-24T05:14:30.552Z,5.58
2023-02-24T05:17:00.486Z,5.60
2023-02-24T05:19:47.671Z,5.60
2023-02-24T05:22:17.581Z,5.59
2023-02-24T05:24:48.042Z,5.55
2023-02-24T05:27:17.585Z,5.54
2023-02-24T05:29:45.972Z,5.54
2023-02-24T05:32:16.813Z,5.53
2023-02-24T05:34:45.201Z,5.53
2023-02-24T05:37:16.537Z,5.53
2023-02-24T05:39:44.582Z,5.54
2023-02-24T05:42:12.863Z,5.52
2023-02-24T05:44:41.843Z,5.51
2023-02-24T05:47:10.585Z,5.50
2023-02-24T05:49:38.984Z,5.50
2023-02-24T05:52:09.743Z,5.50
2023-02-24T05:54:43.374Z,5.49
2023-02-24T05:57:14.780Z,5.48
2023-02-24T05:59:44.922Z,5.50
2023-02-24T06:02:15.409Z,5.51
2023-02-24T06:04:51.683Z,5.53
2023-02-24T06:07:25.018Z,5.52
2023-02-24T06:09:58.924Z,5.51
2023-02-24T06:12:39.885Z,5.50
2023-02-24T06:15:08.699Z,5.49
2023-02-24T06:17:36.868Z,5.49
2023-02-24T06:20:15.936Z,5.48
2023-02-24T06:22:44.517Z,5.47
2023-02-24T06:25:12.834Z,5.48
2023-02-24T06:27:41.145Z,5.48
2023-02-24T06:30:10.407Z,5.48
2023-02-24T06:32:38.752Z,5.47
2023-02-24T06:35:07.082Z,5.47
2023-02-24T06:37:35.891Z,5.45
2023-02-24T06:40:15.806Z,5.44
2023-02-24T06:42:55.827Z,5.45
2023-02-24T06:45:25.308Z,5.46
2023-02-24T06:47:53.714Z,5.49
2023-02-24T06:50:21.991Z,5.51
2023-02-24T06:52:50.783Z,5.53
2023-02-24T06:55:27.359Z,5.56
2023-02-24T06:58:04.556Z,5.59
2023-02-24T07:00:38.992Z,5.60
2023-02-24T07:03:15.508Z,5.62
2023-02-24T07:05:50.513Z,5.63
2023-02-24T07:08:21.251Z,5.66
2023-02-24T07:10:58.143Z,5.66
2023-02-24T07:13:30.554Z,5.68
2023-02-24T07:16:07.302Z,5.68
2023-02-24T07:18:37.211Z,5.70
2023-02-24T07:21:05.556Z,5.74
2023-02-24T07:23:33.704Z,5.76
2023-02-24T07:26:10.352Z,5.75
2023-02-24T07:28:40.259Z,5.76
2023-02-24T07:31:10.627Z,5.77
2023-02-24T07:33:45.273Z,5.79
2023-02-24T07:36:16.006Z,5.80
2023-02-24T07:38:45.583Z,5.80
2023-02-24T07:41:15.961Z,5.81
2023-02-24T07:43:44.250Z,5.82
2023-02-24T07:46:15.492Z,5.82
2023-02-24T07:48:44.097Z,5.84
2023-02-24T07:51:14.952Z,5.83
2023-02-24T07:53:43.522Z,5.83
2023-02-24T07:56:14.343Z,5.80
2023-02-24T07:58:50.553Z,5.78
2023-02-24T08:01:28.129Z,5.77
2023-02-24T08:04:01.320Z,5.77
2023-02-24T08:06:54.698Z,5.78
2023-02-24T08:09:46.800Z,5.77
2023-02-24T08:12:22.399Z,5.80
2023-02-24T08:14:52.931Z,5.80
2023-02-24T08:17:26.783Z,5.80
2023-02-24T08:20:22.090Z,5.81
2023-02-24T08:22:55.162Z,5.83
2023-02-24T08:25:38.326Z,5.83
2023-02-24T08:28:11.774Z,5.82
2023-02-24T08:30:47.597Z,5.82
2023-02-24T08:33:22.279Z,5.83
2023-02-24T08:35:58.009Z,5.88
2023-02-24T08:38:28.741Z,5.91
2023-02-24T08:41:05.047Z,5.94
2023-02-24T08:43:39.329Z,5.98
2023-02-24T08:46:13.722Z,6.02
2023-02-24T08:48:44.173Z,6.04
2023-02-24T08:51:23.563Z,6.06
2023-02-24T08:53:54.630Z,6.08
2023-02-24T08:56:28.200Z,6.08
2023-02-24T08:59:08.214Z,6.09
2023-02-24T09:01:40.436Z,6.07
2023-02-24T09:04:12.150Z,6.08
2023-02-24T09:06:49.243Z,6.09
2023-02-24T09:09:23.026Z,6.12
2023-02-24T09:11:56.681Z,6.15
2023-02-24T09:14:29.312Z,6.18
2023-02-24T09:17:11.942Z,6.21
2023-02-24T09:19:52.186Z,6.25
2023-02-24T09:22:33.388Z,6.30
2023-02-24T09:25:19.323Z,6.34
2023-02-24T09:27:55.203Z,6.34
2023-02-24T09:30:38.832Z,6.35
2023-02-24T09:33:18.350Z,6.37
2023-02-24T09:35:50.586Z,6.38
2023-02-24T09:38:43.160Z,6.40
2023-02-24T09:42:02.575Z,6.42
2023-02-24T09:44:33.674Z,6.49
2023-02-24T09:47:19.861Z,6.52
2023-02-24T09:49:56.522Z,6.56
2023-02-24T09:52:41.022Z,6.60
2023-02-24T09:55:31.028Z,6.64
2023-02-24T09:58:34.842Z,6.65
2023-02-24T10:01:36.195Z,6.67
2023-02-24T10:04:36.219Z,6.70
2023-02-24T10:07:15.762Z,6.72
2023-02-24T10:09:50.650Z,6.76
2023-02-24T10:12:28.356Z,6.78
2023-02-24T10:15:20.185Z,6.81
2023-02-24T10:17:57.265Z,6.88
2023-02-24T10:20:39.601Z,6.95
2023-02-24T10:24:14.773Z,6.97
2023-02-24T10:27:01.261Z,6.97
2023-02-24T10:30:11.501Z,6.91
2023-02-24T10:32:59.028Z,6.91
2023-02-24T10:35:34.207Z,6.91
2023-02-24T10:38:06.262Z,6.92
2023-02-24T10:40:47.269Z,6.90
2023-02-24T10:43:18.613Z,6.90
2023-02-24T10:45:47.674Z,6.83
2023-02-24T10:48:40.621Z,6.80
2023-02-24T10:51:20.157Z,6.77
2023-02-24T10:54:10.249Z,6.76
2023-02-24T10:56:55.319Z,6.79
2023-02-24T10:59:48.603Z,6.79
2023-02-24T11:02:30.116Z,6.78
2023-02-24T11:05:17.035Z,6.78
2023-02-24T11:07:53.832Z,6.78
2023-02-24T11:10:32.562Z,6.78
2023-02-24T11:13:21.658Z,6.78
2023-02-24T11:16:13.360Z,6.74
2023-02-24T11:18:50.128Z,6.76
2023-02-24T11:21:19.789Z,6.81
2023-02-24T11:23:58.569Z,6.85
2023-02-24T11:26:34.944Z,6.90
2023-02-24T11:29:23.188Z,6.93
2023-02-24T11:32:12.709Z,7.01
2023-02-24T11:34:59.665Z,7.07
2023-02-24T11:37:53.513Z,7.10
2023-02-24T11:40:27.013Z,7.14
2023-02-24T11:43:07.404Z,7.13
2023-02-24T11:45:43.516Z,7.11
2023-02-24T11:48:30.056Z,7.06
2023-02-24T11:51:06.079Z,7.03
2023-02-24T11:53:50.177Z,7.02
2023-02-24T11:56:24.289Z,6.99
2023-02-24T11:59:13.664Z,6.92
2023-02-24T12:01:52.454Z,6.87
2023-02-24T12:04:26.595Z,6.83
2023-02-24T12:07:03.711Z,6.79
2023-02-24T12:09:49.344Z,6.72
2023-02-24T12:12:23.231Z,6.65
2023-02-24T12:14:59.341Z,6.60
2023-02-24T12:17:58.081Z,6.58
2023-02-24T12:20:55.931Z,6.59
2023-02-24T12:23:28.357Z,6.63
2023-02-24T12:26:13.583Z,6.68
2023-02-24T12:29:03.999Z,6.74
2023-02-24T12:31:54.427Z,6.77
2023-02-24T12:34:37.792Z,6.79
2023-02-24T12:37:09.170Z,6.73
2023-02-24T12:39:40.380Z,6.67
2023-02-24T12:42:31.632Z,6.57
2023-02-24T12:45:18.616Z,6.48
2023-02-24T12:48:11.820Z,6.44
2023-02-24T12:50:50.082Z,6.41
2023-02-24T12:53:29.087Z,6.40
2023-02-24T12:56:10.126Z,6.38
2023-02-24T12:58:42.513Z,6.35
2023-02-24T13:01:25.231Z,6.32
2023-02-24T13:04:17.102Z,6.28
2023-02-24T13:07:09.996Z,6.28
2023-02-24T13:09:52.714Z,6.27
2023-02-24T13:12:41.255Z,6.28
2023-02-24T13:15:28.711Z,6.25
2023-02-24T13:17:58.313Z,6.22
2023-02-24T13:20:37.289Z,6.22
2023-02-24T13:23:21.213Z,6.21
2023-02-24T13:25:52.670Z,6.22
2023-02-24T13:28:39.067Z,6.23
2023-02-24T13:31:13.018Z,6.21
2023-02-24T13:33:44.275Z,6.18
2023-02-24T13:36:16.228Z,6.18
2023-02-24T13:38:47.407Z,6.14
2023-02-24T13:41:27.661Z,6.08
2023-02-24T13:44:00.198Z,6.06
2023-02-24T13:46:36.126Z,6.05
2023-02-24T13:49:30.556Z,6.00
2023-02-24T13:52:34.713Z,5.94
2023-02-24T13:55:14.215Z,5.88
2023-02-24T13:58:24.473Z,5.81
2023-02-24T14:01:10.855Z,5.79
2023-02-24T14:03:42.227Z,5.77
2023-02-24T14:06:39.559Z,5.74
2023-02-24T14:09:08.341Z,5.70
2023-02-24T14:11:37.821Z,5.66
2023-02-24T14:14:06.033Z,5.63
2023-02-24T14:16:40.022Z,5.59
2023-02-24T14:19:16.305Z,5.55
2023-02-24T14:21:57.824Z,5.53
2023-02-24T14:24:29.270Z,5.51
2023-02-24T14:26:59.526Z,5.50
2023-02-24T14:29:43.123Z,5.47
2023-02-24T14:32:21.661Z,5.45
2023-02-24T14:34:51.210Z,5.43
2023-02-24T14:37:26.099Z,5.42
2023-02-24T14:39:56.958Z,5.43
2023-02-24T14:42:26.728Z,5.40
2023-02-24T14:44:58.069Z,5.39
2023-02-24T14:47:29.107Z,5.36
2023-02-24T14:50:05.072Z,5.36
2023-02-24T14:52:40.858Z,5.37
2023-02-24T14:55:40.548Z,5.40
2023-02-24T14:58:21.286Z,5.42
2023-02-24T15:01:00.098Z,5.42
2023-02-24T15:03:44.922Z,5.43
2023-02-24T15:06:26.300Z,5.42
2023-02-24T15:09:01.833Z,5.43
2023-02-24T15:11:32.119Z,5.45
2023-02-24T15:14:03.444Z,5.44
2023-02-24T15:16:44.185Z,5.43
2023-02-24T15:19:44.396Z,5.38
2023-02-24T15:22:23.098Z,5.36
2023-02-24T15:24:54.033Z,5.36
2023-02-24T15:27:27.948Z,5.38
2023-02-24T15:30:28.110Z,5.38
2023-02-24T15:33:05.926Z,5.36
2023-02-24T15:35:39.139Z,5.33
2023-02-24T15:38:07.314Z,5.31
2023-02-24T15:40:35.670Z,5.30
2023-02-24T15:43:12.143Z,5.28
2023-02-24T15:45:42.615Z,5.27
2023-02-24T15:48:23.557Z,5.24
2023-02-24T15:50:51.881Z,5.22
2023-02-24T15:53:20.512Z,5.21
2023-02-24T15:55:49.823Z,5.19
2023-02-24T15:58:22.102Z,5.15
2023-02-24T16:00:52.538Z,5.11
2023-02-24T16:03:21.396Z,5.07
2023-02-24T16:05:49.530Z,5.05
2023-02-24T16:08:20.747Z,5.03
2023-02-24T16:10:50.591Z,5.02
2023-02-24T16:13:22.866Z,5.01
2023-02-24T16:15:51.587Z,5.00
2023-02-24T16:18:22.811Z,4.95
2023-02-24T16:20:55.415Z,4.92
2023-02-24T16:23:25.831Z,4.86
2023-02-24T16:25:57.401Z,4.82
2023-02-24T16:28:26.770Z,4.79
2023-02-24T16:30:55.250Z,4.78
2023-02-24T16:33:24.249Z,4.79
2023-02-24T16:35:55.710Z,4.81
2023-02-24T16:38:27.029Z,4.81
2023-02-24T16:40:55.988Z,4.84
2023-02-24T16:43:24.882Z,4.83
2023-02-24T16:45:55.676Z,4.82
2023-02-24T16:48:26.465Z,4.77
2023-02-24T16:50:54.767Z,4.76
2023-02-24T16:53:24.988Z,4.77
2023-02-24T16:55:53.335Z,4.76
2023-02-24T16:58:23.424Z,4.76
2023-02-24T17:00:55.598Z,4.75
2023-02-24T17:03:26.899Z,4.72
2023-02-24T17:05:55.292Z,4.70
2023-02-24T17:08:23.948Z,4.66
2023-02-24T17:10:54.306Z,4.64
2023-02-24T17:13:22.917Z,4.62
2023-02-24T17:15:55.512Z,4.61
2023-02-24T17:18:25.192Z,4.60
2023-02-24T17:20:56.829Z,4.61
2023-02-24T17:23:25.427Z,4.62
2023-02-24T17:25:56.898Z,4.63
2023-02-24T17:28:27.160Z,4.62
2023-02-24T17:30:55.751Z,4.61
2023-02-24T17:33:24.004Z,4.58
2023-02-24T17:35:52.078Z,4.58
2023-02-24T17:38:23.264Z,4.58
2023-02-24T17:40:51.305Z,4.59
2023-02-24T17:43:19.810Z,4.61
2023-02-24T17:45:48.101Z,4.62
2023-02-24T17:48:16.304Z,4.65
2023-02-24T17:50:45.974Z,4.64
2023-02-24T17:53:15.226Z,4.62
2023-02-24T17:56:00.959Z,4.62
2023-02-24T17:58:30.720Z,4.58
2023-02-24T18:00:59.032Z,4.55
2023-02-24T18:03:27.498Z,4.55
2023-02-24T18:06:16.921Z,4.55
2023-02-24T18:08:45.038Z,4.54
2023-02-24T18:11:18.902Z,4.53
2023-02-24T18:13:50.873Z,4.54
2023-02-24T18:16:19.638Z,4.54
2023-02-24T18:18:47.928Z,4.58
2023-02-24T18:21:16.069Z,4.61
2023-02-24T18:23:46.021Z,4.63
2023-02-24T18:26:14.170Z,4.63
2023-02-24T18:28:43.306Z,4.64
2023-02-24T18:31:17.514Z,4.66
2023-02-24T18:33:46.574Z,4.67
2023-02-24T18:36:15.960Z,4.66
2023-02-24T18:38:44.749Z,4.63
2023-02-24T18:41:16.032Z,4.58
2023-02-24T18:43:48.176Z,4.53
2023-02-24T18:46:18.595Z,4.51
2023-02-24T18:48:48.590Z,4.51
2023-02-24T18:51:20.226Z,4.50
2023-02-24T18:53:52.117Z,4.52
2023-02-24T18:56:24.968Z,4.51
2023-02-24T18:58:56.858Z,4.52
2023-02-24T19:01:32.815Z,4.51
2023-02-24T19:04:02.390Z,4.49
2023-02-24T19:06:32.363Z,4.47
2023-02-24T19:09:06.247Z,4.45
2023-02-24T19:11:34.440Z,4.45
2023-02-24T19:14:03.484Z,4.44
2023-02-24T19:16:32.145Z,4.45
2023-02-24T19:19:01.176Z,4.49
2023-02-24T19:21:31.334Z,4.51
2023-02-24T19:24:04.073Z,4.52
2023-02-24T19:26:32.487Z,4.51
2023-02-24T19:29:00.876Z,4.53
2023-02-24T19:31:30.912Z,4.53
2023-02-24T19:34:02.471Z,4.53
2023-02-24T19:36:33.266Z,4.55
2023-02-24T19:39:01.862Z,4.56
2023-02-24T19:41:30.361Z,4.56
2023-02-24T19:43:59.930Z,4.54
2023-02-24T19:46:33.176Z,4.51
2023-02-24T19:49:01.817Z,4.45
2023-02-24T19:51:31.251Z,4.44
2023-02-24T19:54:03.359Z,4.43
2023-02-24T19:56:34.873Z,4.42
2023-02-24T19:59:05.891Z,4.41
2023-02-24T20:01:36.967Z,4.39
2023-02-24T20:04:05.996Z,4.38
2023-02-24T20:06:38.107Z,4.39
2023-02-24T20:09:08.881Z,4.39
2023-02-24T20:11:39.290Z,4.36
2023-02-24T20:14:09.314Z,4.30
2023-02-24T20:16:39.652Z,4.25
2023-02-24T20:19:10.249Z,4.22
2023-02-24T20:21:38.930Z,4.20
2023-02-24T20:24:12.535Z,4.18
2023-02-24T20:26:46.435Z,4.17
2023-02-24T20:29:16.722Z,4.17
2023-02-24T20:31:46.578Z,4.16
2023-02-24T20:34:16.954Z,4.12
2023-02-24T20:36:45.381Z,4.08
2023-02-24T20:39:14.041Z,4.04
2023-02-24T20:41:43.037Z,4.00
2023-02-24T20:44:12.177Z,3.95
2023-02-24T20:46:40.623Z,3.90
2023-02-24T20:49:12.932Z,3.84
2023-02-24T20:51:42.194Z,3.81
2023-02-24T20:54:12.047Z,3.77
2023-02-24T20:56:42.146Z,3.74
2023-02-24T20:59:17.550Z,3.70
2023-02-24T21:01:48.590Z,3.68
2023-02-24T21:04:21.478Z,3.67
2023-02-24T21:06:51.555Z,3.66
2023-02-24T21:09:19.804Z,3.64
2023-02-24T21:11:48.196Z,3.63
2023-02-24T21:14:16.926Z,3.61
2023-02-24T21:16:53.773Z,3.60
2023-02-24T21:19:22.231Z,3.58
2023-02-24T21:21:50.314Z,3.58
2023-02-24T21:24:18.512Z,3.58
2023-02-24T21:26:48.800Z,3.59
2023-02-24T21:29:19.604Z,3.57
2023-02-24T21:31:48.914Z,3.55
2023-02-24T21:34:17.386Z,3.57
2023-02-24T21:36:45.706Z,3.57
2023-02-24T21:39:18.119Z,3.53
2023-02-24T21:41:47.339Z,3.53
2023-02-24T21:44:15.638Z,3.53
2023-02-24T21:46:43.849Z,3.53
2023-02-24T21:49:15.072Z,3.51
2023-02-24T21:51:43.737Z,3.46
2023-02-24T21:54:12.621Z,3.41
2023-02-24T21:56:41.233Z,3.39
2023-02-24T21:59:11.243Z,3.39
2023-02-24T22:01:43.168Z,3.37
2023-02-24T22:04:14.712Z,3.36
2023-02-24T22:06:44.858Z,3.35
2023-02-24T22:09:20.574Z,3.35
2023-02-24T22:11:49.994Z,3.33
2023-02-24T22:14:18.904Z,3.28
2023-02-24T22:16:47.128Z,3.25
2023-02-24T22:19:15.447Z,3.25
2023-02-24T22:21:43.884Z,3.25
2023-02-24T22:24:14.421Z,3.23
2023-02-24T22:26:43.384Z,3.22
2023-02-24T22:29:11.934Z,3.20
2023-02-24T22:31:43.522Z,3.19
2023-02-24T22:34:13.200Z,3.17
2023-02-24T22:36:41.548Z,3.15
2023-02-24T22:39:09.866Z,3.13
2023-02-24T22:41:38.731Z,3.16
2023-02-24T22:44:07.271Z,3.19
2023-02-24T22:46:38.364Z,3.20
2023-02-24T22:49:06.765Z,3.18
2023-02-24T22:51:35.141Z,3.13
2023-02-24T22:54:04.250Z,3.11
2023-02-24T22:56:32.715Z,3.04
2023-02-24T22:59:01.109Z,2.98
2023-02-24T23:01:31.987Z,2.93
2023-02-24T23:04:02.000Z,2.91
2023-02-24T23:06:31.010Z,2.90
2023-02-24T23:09:00.721Z,2.89
2023-02-24T23:11:31.504Z,2.92
2023-02-24T23:14:02.500Z,2.92
2023-02-24T23:16:33.221Z,2.90
2023-02-24T23:19:04.387Z,2.87
2023-02-24T23:21:38.603Z,2.85
2023-02-24T23:24:08.951Z,2.83
2023-02-24T23:26:40.938Z,2.79
2023-02-24T23:29:11.589Z,2.78
2023-02-24T23:31:41.640Z,2.79
2023-02-24T23:34:10.726Z,2.82
2023-02-24T23:36:41.909Z,2.83
2023-02-24T23:39:10.892Z,2.82
2023-02-24T23:41:41.305Z,2.78
2023-02-24T23:44:10.116Z,2.78
2023-02-24T23:46:38.393Z,2.76
2023-02-24T23:49:07.032Z,2.74
2023-02-24T23:51:47.690Z,2.73
2023-02-24T23:54:18.281Z,2.74
2023-02-24T23:56:46.865Z,2.77
2023-02-24T23:59:16.196Z,2.78
